Bar Harbor, ME

8:35 PM EST on December 02, 2016 (GMT -0500)
19 Strawberry Hill Road | | Change Station

Elev 173 ft 44.37 °N, 68.20 °W | Updated 6 seconds ago

Overcast
Overcast
39.3 °F
Feels Like 39 °F
N
1.0
Wind Variable Wind from WSW
Gusts 1.0 mph

Today
High -- | Low -- °F
--% Chance of Precip.
Yesterday
High -- | Low -- °F
Precip. -- in
Pressure 29.65 in
Visibility 4.0 miles
Clouds Few 5500 ft
Overcast 7500 ft
Windchill 39 °F
Dew Point 32 °F
Humidity 76%
Rainfall 0.20 in
Snow Depth Not available.
6:50 AM 3:54 PM
Waxing Crescent, 11% visible
METAR KBHB 030056Z AUTO 00000KT 4SM BR FEW055 OVC075 03/03 A2963 RMK AO2 RAE2359B51E52UPB42E51 SLP039 P0000 T00330028
Pressure 29.65 in
Visibility 4.0 miles
Clouds Few 5500 ft
Overcast 7500 ft
Windchill 39 °F
Dew Point 32 °F
Humidity 76%
Rainfall 0.20 in
Snow Depth Not available.
6:50 AM 3:54 PM
Waxing Crescent, 11% visible
METAR KBHB 030056Z AUTO 00000KT 4SM BR FEW055 OVC075 03/03 A2963 RMK AO2 RAE2359B51E52UPB42E51 SLP039 P0000 T00330028

10-Day Weather Forecast

Almanac

Astronomy

Dec. 02, 2016 Rise Set
Actual Time
Civil Twilight
Nautical Twilight
Astronomical Twilight
Moon
Length of Visible Light
Length of Day
Tomorrow will be .
, % of the Moon is Illuminated

Today's Extremes

State Highs State Lows

Community

WunderPhotos

Upload Photos

1,955,390 photos uploaded!

WunderBlog® & News

Nearby

Air Quality

  Air Quality AQ Index Pollutant
Not available.

Snow Depth

Station Depth Elevation

Earthquake Activity

City Distance Mag. Time & Date
Minimum magnitude displayed is 2.5.

Coastal Water Temperatures

Place Temperature

Stations

Nearby Weather Stations

Station Location Temp. Windchill Dew Point Humidity Wind Precip. Elev Updated Type
                   

Watches & Warnings

There are currently no watches in effect.